sensor_id;sensor_type;location;lat;lon;timestamp;P1;durP1;ratioP1;P2;durP2;ratioP2
75261;SDS011;63859;51.064;4.580;2023-11-21T00:01:53;118.20;;;48.53;;
75261;SDS011;63859;51.064;4.580;2023-11-21T00:04:19;103.10;;;46.00;;
75261;SDS011;63859;51.064;4.580;2023-11-21T00:06:45;124.10;;;49.60;;
75261;SDS011;63859;51.064;4.580;2023-11-21T00:09:11;118.50;;;47.77;;
75261;SDS011;63859;51.064;4.580;2023-11-21T00:11:38;112.20;;;47.23;;
75261;SDS011;63859;51.064;4.580;2023-11-21T00:14:04;117.83;;;47.73;;
75261;SDS011;63859;51.064;4.580;2023-11-21T00:16:29;115.80;;;47.30;;
75261;SDS011;63859;51.064;4.580;2023-11-21T00:18:55;115.00;;;47.07;;
75261;SDS011;63859;51.064;4.580;2023-11-21T00:21:21;117.80;;;47.90;;
75261;SDS011;63859;51.064;4.580;2023-11-21T00:23:46;112.90;;;47.27;;
75261;SDS011;63859;51.064;4.580;2023-11-21T00:26:12;132.83;;;49.23;;
75261;SDS011;63859;51.064;4.580;2023-11-21T00:28:39;125.03;;;49.77;;
75261;SDS011;63859;51.064;4.580;2023-11-21T00:31:05;128.17;;;50.10;;
75261;SDS011;63859;51.064;4.580;2023-11-21T00:33:31;123.67;;;47.80;;
75261;SDS011;63859;51.064;4.580;2023-11-21T00:35:57;139.43;;;50.77;;
75261;SDS011;63859;51.064;4.580;2023-11-21T00:38:22;206.60;;;51.67;;
75261;SDS011;63859;51.064;4.580;2023-11-21T00:40:48;245.23;;;52.90;;
75261;SDS011;63859;51.064;4.580;2023-11-21T00:43:14;260.10;;;52.13;;
75261;SDS011;63859;51.064;4.580;2023-11-21T00:45:40;189.67;;;50.57;;
75261;SDS011;63859;51.064;4.580;2023-11-21T00:48:06;217.93;;;52.20;;
75261;SDS011;63859;51.064;4.580;2023-11-21T00:50:33;252.93;;;50.70;;
75261;SDS011;63859;51.064;4.580;2023-11-21T00:52:59;230.77;;;52.90;;
75261;SDS011;63859;51.064;4.580;2023-11-21T00:55:24;145.73;;;50.47;;
75261;SDS011;63859;51.064;4.580;2023-11-21T00:57:51;130.93;;;51.43;;
75261;SDS011;63859;51.064;4.580;2023-11-21T01:00:17;142.00;;;52.80;;
75261;SDS011;63859;51.064;4.580;2023-11-21T01:02:45;145.00;;;52.50;;
75261;SDS011;63859;51.064;4.580;2023-11-21T01:05:12;157.27;;;54.03;;
75261;SDS011;63859;51.064;4.580;2023-11-21T01:07:38;159.70;;;53.40;;
75261;SDS011;63859;51.064;4.580;2023-11-21T01:10:03;150.37;;;51.53;;
75261;SDS011;63859;51.064;4.580;2023-11-21T01:12:36;180.37;;;53.27;;
75261;SDS011;63859;51.064;4.580;2023-11-21T01:15:03;173.57;;;52.67;;
75261;SDS011;63859;51.064;4.580;2023-11-21T01:17:32;157.27;;;53.87;;
75261;SDS011;63859;51.064;4.580;2023-11-21T01:19:59;148.17;;;51.80;;
75261;SDS011;63859;51.064;4.580;2023-11-21T01:22:25;177.97;;;55.43;;
75261;SDS011;63859;51.064;4.580;2023-11-21T01:24:54;172.67;;;53.37;;
75261;SDS011;63859;51.064;4.580;2023-11-21T01:27:19;151.07;;;50.77;;
75261;SDS011;63859;51.064;4.580;2023-11-21T01:29:45;148.43;;;50.87;;
75261;SDS011;63859;51.064;4.580;2023-11-21T01:32:11;148.93;;;52.10;;
75261;SDS011;63859;51.064;4.580;2023-11-21T01:34:37;132.17;;;49.53;;
75261;SDS011;63859;51.064;4.580;2023-11-21T01:37:03;137.93;;;49.90;;
75261;SDS011;63859;51.064;4.580;2023-11-21T01:39:30;132.37;;;49.83;;
75261;SDS011;63859;51.064;4.580;2023-11-21T01:41:56;139.20;;;48.50;;
75261;SDS011;63859;51.064;4.580;2023-11-21T01:44:25;146.83;;;48.97;;
75261;SDS011;63859;51.064;4.580;2023-11-21T01:46:50;143.30;;;49.23;;
75261;SDS011;63859;51.064;4.580;2023-11-21T01:49:17;137.03;;;48.67;;
75261;SDS011;63859;51.064;4.580;2023-11-21T01:51:47;143.10;;;48.37;;
75261;SDS011;63859;51.064;4.580;2023-11-21T01:54:14;158.97;;;49.07;;
75261;SDS011;63859;51.064;4.580;2023-11-21T01:56:42;141.90;;;46.80;;
75261;SDS011;63859;51.064;4.580;2023-11-21T01:59:10;136.80;;;46.73;;
75261;SDS011;63859;51.064;4.580;2023-11-21T02:01:39;134.43;;;45.90;;
75261;SDS011;63859;51.064;4.580;2023-11-21T02:04:05;135.27;;;46.13;;
75261;SDS011;63859;51.064;4.580;2023-11-21T02:06:33;145.20;;;46.63;;
75261;SDS011;63859;51.064;4.580;2023-11-21T02:08:59;147.57;;;48.33;;
75261;SDS011;63859;51.064;4.580;2023-11-21T02:11:25;148.90;;;48.37;;
75261;SDS011;63859;51.064;4.580;2023-11-21T02:13:52;148.67;;;48.80;;
75261;SDS011;63859;51.064;4.580;2023-11-21T02:16:19;144.57;;;47.83;;
75261;SDS011;63859;51.064;4.580;2023-11-21T02:18:46;151.50;;;47.70;;
75261;SDS011;63859;51.064;4.580;2023-11-21T02:21:13;135.00;;;47.40;;
75261;SDS011;63859;51.064;4.580;2023-11-21T02:23:39;144.80;;;46.83;;
75261;SDS011;63859;51.064;4.580;2023-11-21T02:26:09;139.93;;;46.10;;
75261;SDS011;63859;51.064;4.580;2023-11-21T02:28:35;137.90;;;46.13;;
75261;SDS011;63859;51.064;4.580;2023-11-21T02:31:01;137.17;;;44.27;;
75261;SDS011;63859;51.064;4.580;2023-11-21T02:33:29;135.27;;;43.77;;
75261;SDS011;63859;51.064;4.580;2023-11-21T02:35:58;144.73;;;45.07;;
75261;SDS011;63859;51.064;4.580;2023-11-21T02:38:24;132.87;;;42.67;;
75261;SDS011;63859;51.064;4.580;2023-11-21T02:40:50;138.60;;;44.23;;
75261;SDS011;63859;51.064;4.580;2023-11-21T02:43:15;141.00;;;42.67;;
75261;SDS011;63859;51.064;4.580;2023-11-21T02:45:41;140.80;;;43.57;;
75261;SDS011;63859;51.064;4.580;2023-11-21T02:48:07;137.73;;;43.97;;
75261;SDS011;63859;51.064;4.580;2023-11-21T02:50:33;128.00;;;42.40;;
75261;SDS011;63859;51.064;4.580;2023-11-21T02:53:00;132.40;;;42.47;;
75261;SDS011;63859;51.064;4.580;2023-11-21T02:55:26;136.17;;;42.50;;
75261;SDS011;63859;51.064;4.580;2023-11-21T02:57:53;127.07;;;42.17;;
75261;SDS011;63859;51.064;4.580;2023-11-21T03:00:18;138.00;;;41.70;;
75261;SDS011;63859;51.064;4.580;2023-11-21T03:02:44;129.00;;;42.73;;
75261;SDS011;63859;51.064;4.580;2023-11-21T03:05:12;130.70;;;42.47;;
75261;SDS011;63859;51.064;4.580;2023-11-21T03:07:38;136.23;;;42.67;;
75261;SDS011;63859;51.064;4.580;2023-11-21T03:10:05;134.23;;;40.40;;
75261;SDS011;63859;51.064;4.580;2023-11-21T03:12:34;130.43;;;40.20;;
75261;SDS011;63859;51.064;4.580;2023-11-21T03:14:59;137.83;;;41.13;;
75261;SDS011;63859;51.064;4.580;2023-11-21T03:17:27;120.67;;;39.57;;
75261;SDS011;63859;51.064;4.580;2023-11-21T03:19:54;127.97;;;39.37;;
75261;SDS011;63859;51.064;4.580;2023-11-21T03:22:19;115.80;;;39.20;;
75261;SDS011;63859;51.064;4.580;2023-11-21T03:24:45;126.90;;;40.07;;
75261;SDS011;63859;51.064;4.580;2023-11-21T03:27:11;131.53;;;41.40;;
75261;SDS011;63859;51.064;4.580;2023-11-21T03:29:37;121.10;;;39.67;;
75261;SDS011;63859;51.064;4.580;2023-11-21T03:32:02;125.23;;;39.67;;
75261;SDS011;63859;51.064;4.580;2023-11-21T03:34:29;129.87;;;39.87;;
75261;SDS011;63859;51.064;4.580;2023-11-21T03:36:55;134.87;;;40.00;;
75261;SDS011;63859;51.064;4.580;2023-11-21T03:39:20;127.33;;;40.47;;
75261;SDS011;63859;51.064;4.580;2023-11-21T03:41:47;128.87;;;38.07;;
75261;SDS011;63859;51.064;4.580;2023-11-21T03:44:13;118.23;;;39.93;;
75261;SDS011;63859;51.064;4.580;2023-11-21T03:46:39;120.27;;;38.63;;
75261;SDS011;63859;51.064;4.580;2023-11-21T03:49:05;133.53;;;42.13;;
75261;SDS011;63859;51.064;4.580;2023-11-21T03:51:30;122.10;;;40.37;;
75261;SDS011;63859;51.064;4.580;2023-11-21T03:53:56;116.50;;;37.93;;
75261;SDS011;63859;51.064;4.580;2023-11-21T03:56:22;126.73;;;38.93;;
75261;SDS011;63859;51.064;4.580;2023-11-21T03:58:48;121.40;;;38.30;;
75261;SDS011;63859;51.064;4.580;2023-11-21T04:01:23;117.50;;;38.97;;
75261;SDS011;63859;51.064;4.580;2023-11-21T04:03:50;128.20;;;37.73;;
75261;SDS011;63859;51.064;4.580;2023-11-21T04:06:16;121.93;;;37.90;;
75261;SDS011;63859;51.064;4.580;2023-11-21T04:08:43;111.90;;;39.00;;
75261;SDS011;63859;51.064;4.580;2023-11-21T04:11:09;106.60;;;37.57;;
75261;SDS011;63859;51.064;4.580;2023-11-21T04:13:37;120.17;;;38.93;;
75261;SDS011;63859;51.064;4.580;2023-11-21T04:16:03;118.73;;;37.27;;
75261;SDS011;63859;51.064;4.580;2023-11-21T04:18:30;122.27;;;36.97;;
75261;SDS011;63859;51.064;4.580;2023-11-21T04:20:56;109.90;;;35.60;;
75261;SDS011;63859;51.064;4.580;2023-11-21T04:23:22;108.60;;;37.20;;
75261;SDS011;63859;51.064;4.580;2023-11-21T04:25:47;119.30;;;37.20;;
75261;SDS011;63859;51.064;4.580;2023-11-21T04:28:13;111.63;;;37.93;;
75261;SDS011;63859;51.064;4.580;2023-11-21T04:30:38;116.53;;;38.00;;
75261;SDS011;63859;51.064;4.580;2023-11-21T04:33:04;108.03;;;37.57;;
75261;SDS011;63859;51.064;4.580;2023-11-21T04:35:30;105.97;;;36.27;;
75261;SDS011;63859;51.064;4.580;2023-11-21T04:37:55;103.53;;;35.23;;
75261;SDS011;63859;51.064;4.580;2023-11-21T04:40:22;101.43;;;36.10;;
75261;SDS011;63859;51.064;4.580;2023-11-21T04:42:48;104.17;;;36.07;;
75261;SDS011;63859;51.064;4.580;2023-11-21T04:45:13;107.30;;;37.57;;
75261;SDS011;63859;51.064;4.580;2023-11-21T04:47:39;114.03;;;37.93;;
75261;SDS011;63859;51.064;4.580;2023-11-21T04:50:05;96.43;;;35.73;;
75261;SDS011;63859;51.064;4.580;2023-11-21T04:52:31;98.57;;;35.87;;
75261;SDS011;63859;51.064;4.580;2023-11-21T04:54:58;111.37;;;36.87;;
75261;SDS011;63859;51.064;4.580;2023-11-21T04:57:26;99.03;;;35.70;;
75261;SDS011;63859;51.064;4.580;2023-11-21T04:59:53;110.00;;;38.53;;
75261;SDS011;63859;51.064;4.580;2023-11-21T05:02:19;107.57;;;38.53;;
75261;SDS011;63859;51.064;4.580;2023-11-21T05:04:46;107.13;;;37.53;;
75261;SDS011;63859;51.064;4.580;2023-11-21T05:07:12;112.10;;;37.80;;
75261;SDS011;63859;51.064;4.580;2023-11-21T05:09:41;103.27;;;36.80;;
75261;SDS011;63859;51.064;4.580;2023-11-21T05:12:09;99.90;;;36.83;;
75261;SDS011;63859;51.064;4.580;2023-11-21T05:14:35;109.97;;;39.07;;
75261;SDS011;63859;51.064;4.580;2023-11-21T05:17:01;102.80;;;38.93;;
75261;SDS011;63859;51.064;4.580;2023-11-21T05:19:29;108.30;;;39.17;;
75261;SDS011;63859;51.064;4.580;2023-11-21T05:21:54;101.97;;;38.60;;
75261;SDS011;63859;51.064;4.580;2023-11-21T05:24:20;112.33;;;39.43;;
75261;SDS011;63859;51.064;4.580;2023-11-21T05:26:46;95.27;;;38.23;;
75261;SDS011;63859;51.064;4.580;2023-11-21T05:29:11;104.13;;;37.90;;
75261;SDS011;63859;51.064;4.580;2023-11-21T05:31:37;102.27;;;38.37;;
75261;SDS011;63859;51.064;4.580;2023-11-21T05:34:03;106.53;;;38.97;;
75261;SDS011;63859;51.064;4.580;2023-11-21T05:36:30;100.83;;;37.30;;
75261;SDS011;63859;51.064;4.580;2023-11-21T05:38:56;104.50;;;39.23;;
75261;SDS011;63859;51.064;4.580;2023-11-21T05:41:21;108.13;;;40.00;;
75261;SDS011;63859;51.064;4.580;2023-11-21T05:43:48;97.50;;;38.77;;
75261;SDS011;63859;51.064;4.580;2023-11-21T05:46:14;91.93;;;38.67;;
75261;SDS011;63859;51.064;4.580;2023-11-21T05:48:39;108.93;;;39.47;;
75261;SDS011;63859;51.064;4.580;2023-11-21T05:51:06;98.83;;;38.63;;
75261;SDS011;63859;51.064;4.580;2023-11-21T05:53:31;108.70;;;39.80;;
75261;SDS011;63859;51.064;4.580;2023-11-21T05:55:57;107.90;;;40.17;;
75261;SDS011;63859;51.064;4.580;2023-11-21T05:58:23;95.27;;;38.97;;
75261;SDS011;63859;51.064;4.580;2023-11-21T06:00:49;101.10;;;39.33;;
75261;SDS011;63859;51.064;4.580;2023-11-21T06:03:14;102.27;;;39.83;;
75261;SDS011;63859;51.064;4.580;2023-11-21T06:05:40;95.20;;;38.20;;
75261;SDS011;63859;51.064;4.580;2023-11-21T06:08:05;101.77;;;39.90;;
75261;SDS011;63859;51.064;4.580;2023-11-21T06:10:32;105.67;;;40.87;;
75261;SDS011;63859;51.064;4.580;2023-11-21T06:12:58;100.43;;;41.70;;
75261;SDS011;63859;51.064;4.580;2023-11-21T06:15:24;107.47;;;40.97;;
75261;SDS011;63859;51.064;4.580;2023-11-21T06:17:49;103.87;;;40.73;;
75261;SDS011;63859;51.064;4.580;2023-11-21T06:20:17;105.10;;;42.87;;
75261;SDS011;63859;51.064;4.580;2023-11-21T06:22:47;110.63;;;43.30;;
75261;SDS011;63859;51.064;4.580;2023-11-21T06:25:15;106.37;;;41.63;;
75261;SDS011;63859;51.064;4.580;2023-11-21T06:27:41;102.23;;;43.00;;
75261;SDS011;63859;51.064;4.580;2023-11-21T06:30:09;112.20;;;43.27;;
75261;SDS011;63859;51.064;4.580;2023-11-21T06:32:36;112.40;;;43.07;;
75261;SDS011;63859;51.064;4.580;2023-11-21T06:35:03;108.53;;;40.87;;
75261;SDS011;63859;51.064;4.580;2023-11-21T06:37:30;107.30;;;42.03;;
75261;SDS011;63859;51.064;4.580;2023-11-21T06:39:57;104.07;;;42.17;;
75261;SDS011;63859;51.064;4.580;2023-11-21T06:42:23;109.43;;;44.37;;
75261;SDS011;63859;51.064;4.580;2023-11-21T06:44:50;114.93;;;44.27;;
75261;SDS011;63859;51.064;4.580;2023-11-21T06:47:22;103.03;;;41.20;;
75261;SDS011;63859;51.064;4.580;2023-11-21T06:49:51;106.63;;;42.30;;
75261;SDS011;63859;51.064;4.580;2023-11-21T06:52:18;100.67;;;42.43;;
75261;SDS011;63859;51.064;4.580;2023-11-21T06:54:44;102.07;;;42.47;;
75261;SDS011;63859;51.064;4.580;2023-11-21T06:57:10;102.87;;;40.93;;
75261;SDS011;63859;51.064;4.580;2023-11-21T06:59:36;105.00;;;43.13;;
75261;SDS011;63859;51.064;4.580;2023-11-21T07:02:02;110.10;;;43.73;;
75261;SDS011;63859;51.064;4.580;2023-11-21T07:04:29;98.63;;;43.87;;
75261;SDS011;63859;51.064;4.580;2023-11-21T07:06:55;107.30;;;44.83;;
75261;SDS011;63859;51.064;4.580;2023-11-21T07:09:21;107.63;;;43.40;;
75261;SDS011;63859;51.064;4.580;2023-11-21T07:11:51;102.00;;;42.27;;
75261;SDS011;63859;51.064;4.580;2023-11-21T07:14:17;107.60;;;44.00;;
75261;SDS011;63859;51.064;4.580;2023-11-21T07:16:44;112.10;;;43.70;;
75261;SDS011;63859;51.064;4.580;2023-11-21T07:19:10;101.70;;;42.97;;
75261;SDS011;63859;51.064;4.580;2023-11-21T07:21:37;103.53;;;43.40;;
75261;SDS011;63859;51.064;4.580;2023-11-21T07:24:04;111.70;;;41.87;;
75261;SDS011;63859;51.064;4.580;2023-11-21T07:26:31;100.53;;;42.57;;
75261;SDS011;63859;51.064;4.580;2023-11-21T07:28:58;112.27;;;43.50;;
75261;SDS011;63859;51.064;4.580;2023-11-21T07:31:24;113.03;;;42.43;;
75261;SDS011;63859;51.064;4.580;2023-11-21T07:33:50;118.87;;;44.10;;
75261;SDS011;63859;51.064;4.580;2023-11-21T07:36:16;111.87;;;44.77;;
75261;SDS011;63859;51.064;4.580;2023-11-21T07:38:48;129.33;;;46.77;;
75261;SDS011;63859;51.064;4.580;2023-11-21T07:41:15;133.77;;;47.27;;
75261;SDS011;63859;51.064;4.580;2023-11-21T07:43:41;134.37;;;46.37;;
75261;SDS011;63859;51.064;4.580;2023-11-21T07:46:07;134.53;;;46.53;;
75261;SDS011;63859;51.064;4.580;2023-11-21T07:48:33;139.27;;;48.00;;
75261;SDS011;63859;51.064;4.580;2023-11-21T07:51:00;142.93;;;46.83;;
75261;SDS011;63859;51.064;4.580;2023-11-21T07:53:28;152.83;;;46.53;;
75261;SDS011;63859;51.064;4.580;2023-11-21T07:55:58;150.37;;;48.10;;
75261;SDS011;63859;51.064;4.580;2023-11-21T07:58:27;136.90;;;46.30;;
75261;SDS011;63859;51.064;4.580;2023-11-21T08:00:53;145.37;;;47.37;;
75261;SDS011;63859;51.064;4.580;2023-11-21T08:03:19;148.83;;;46.67;;
75261;SDS011;63859;51.064;4.580;2023-11-21T08:05:45;140.90;;;45.70;;
75261;SDS011;63859;51.064;4.580;2023-11-21T08:08:10;146.23;;;48.60;;
75261;SDS011;63859;51.064;4.580;2023-11-21T08:10:36;148.63;;;49.03;;
75261;SDS011;63859;51.064;4.580;2023-11-21T08:13:02;152.13;;;48.60;;
75261;SDS011;63859;51.064;4.580;2023-11-21T08:15:29;151.43;;;49.87;;
75261;SDS011;63859;51.064;4.580;2023-11-21T08:17:56;159.37;;;51.53;;
75261;SDS011;63859;51.064;4.580;2023-11-21T08:20:23;160.43;;;51.03;;
75261;SDS011;63859;51.064;4.580;2023-11-21T08:22:50;160.03;;;51.67;;
75261;SDS011;63859;51.064;4.580;2023-11-21T08:25:16;172.70;;;51.07;;
75261;SDS011;63859;51.064;4.580;2023-11-21T08:27:45;179.90;;;52.67;;
75261;SDS011;63859;51.064;4.580;2023-11-21T08:30:11;155.93;;;51.03;;
75261;SDS011;63859;51.064;4.580;2023-11-21T08:32:38;173.13;;;52.67;;
75261;SDS011;63859;51.064;4.580;2023-11-21T08:35:04;161.57;;;52.70;;
75261;SDS011;63859;51.064;4.580;2023-11-21T08:37:31;172.37;;;51.57;;
75261;SDS011;63859;51.064;4.580;2023-11-21T08:39:58;165.77;;;49.87;;
75261;SDS011;63859;51.064;4.580;2023-11-21T08:42:27;173.00;;;50.40;;
75261;SDS011;63859;51.064;4.580;2023-11-21T08:44:55;164.17;;;51.60;;
75261;SDS011;63859;51.064;4.580;2023-11-21T08:47:23;172.70;;;51.00;;
75261;SDS011;63859;51.064;4.580;2023-11-21T08:49:49;182.47;;;52.20;;
75261;SDS011;63859;51.064;4.580;2023-11-21T08:52:18;175.97;;;51.67;;
75261;SDS011;63859;51.064;4.580;2023-11-21T08:54:45;180.33;;;53.30;;
75261;SDS011;63859;51.064;4.580;2023-11-21T08:57:11;179.60;;;51.30;;
75261;SDS011;63859;51.064;4.580;2023-11-21T08:59:37;191.87;;;51.53;;
75261;SDS011;63859;51.064;4.580;2023-11-21T09:02:02;185.70;;;51.77;;
75261;SDS011;63859;51.064;4.580;2023-11-21T09:04:28;189.03;;;52.60;;
75261;SDS011;63859;51.064;4.580;2023-11-21T09:06:54;183.43;;;51.10;;
75261;SDS011;63859;51.064;4.580;2023-11-21T09:09:19;197.10;;;53.03;;
75261;SDS011;63859;51.064;4.580;2023-11-21T09:11:45;189.57;;;51.50;;
75261;SDS011;63859;51.064;4.580;2023-11-21T09:14:11;217.03;;;50.67;;
75261;SDS011;63859;51.064;4.580;2023-11-21T09:16:40;215.70;;;50.73;;
75261;SDS011;63859;51.064;4.580;2023-11-21T09:19:06;178.77;;;49.43;;
75261;SDS011;63859;51.064;4.580;2023-11-21T09:21:32;239.73;;;52.93;;
75261;SDS011;63859;51.064;4.580;2023-11-21T09:23:59;183.73;;;50.50;;
75261;SDS011;63859;51.064;4.580;2023-11-21T09:26:25;196.97;;;51.83;;
75261;SDS011;63859;51.064;4.580;2023-11-21T09:28:51;205.47;;;50.50;;
75261;SDS011;63859;51.064;4.580;2023-11-21T09:31:17;196.13;;;50.67;;
75261;SDS011;63859;51.064;4.580;2023-11-21T09:33:47;213.07;;;53.47;;
75261;SDS011;63859;51.064;4.580;2023-11-21T09:36:13;188.60;;;50.57;;
75261;SDS011;63859;51.064;4.580;2023-11-21T09:38:42;195.07;;;51.27;;
75261;SDS011;63859;51.064;4.580;2023-11-21T09:41:10;199.43;;;51.43;;
75261;SDS011;63859;51.064;4.580;2023-11-21T09:43:42;164.07;;;49.60;;
75261;SDS011;63859;51.064;4.580;2023-11-21T09:46:11;155.20;;;45.63;;
75261;SDS011;63859;51.064;4.580;2023-11-21T09:48:41;172.13;;;47.43;;
75261;SDS011;63859;51.064;4.580;2023-11-21T09:51:08;161.90;;;45.87;;
75261;SDS011;63859;51.064;4.580;2023-11-21T09:53:35;146.73;;;44.53;;
75261;SDS011;63859;51.064;4.580;2023-11-21T09:56:03;144.73;;;43.93;;
75261;SDS011;63859;51.064;4.580;2023-11-21T09:58:29;139.93;;;43.13;;
75261;SDS011;63859;51.064;4.580;2023-11-21T10:00:58;125.07;;;41.47;;
75261;SDS011;63859;51.064;4.580;2023-11-21T10:03:28;133.53;;;42.57;;
75261;SDS011;63859;51.064;4.580;2023-11-21T10:05:55;114.53;;;39.60;;
75261;SDS011;63859;51.064;4.580;2023-11-21T10:08:25;117.73;;;38.60;;
75261;SDS011;63859;51.064;4.580;2023-11-21T10:10:53;115.37;;;39.90;;
75261;SDS011;63859;51.064;4.580;2023-11-21T10:13:20;108.40;;;36.83;;
75261;SDS011;63859;51.064;4.580;2023-11-21T10:15:50;104.43;;;38.20;;
75261;SDS011;63859;51.064;4.580;2023-11-21T10:18:17;109.17;;;37.13;;
75261;SDS011;63859;51.064;4.580;2023-11-21T10:20:44;102.90;;;36.13;;
75261;SDS011;63859;51.064;4.580;2023-11-21T10:23:16;106.03;;;36.70;;
75261;SDS011;63859;51.064;4.580;2023-11-21T10:25:47;100.33;;;36.27;;
75261;SDS011;63859;51.064;4.580;2023-11-21T10:28:13;98.07;;;36.43;;
75261;SDS011;63859;51.064;4.580;2023-11-21T10:30:39;96.77;;;34.77;;
75261;SDS011;63859;51.064;4.580;2023-11-21T10:33:05;88.33;;;32.13;;
75261;SDS011;63859;51.064;4.580;2023-11-21T10:38:07;79.70;;;30.07;;
75261;SDS011;63859;51.064;4.580;2023-11-21T10:40:38;72.90;;;27.73;;
75261;SDS011;63859;51.064;4.580;2023-11-21T10:43:07;66.53;;;25.93;;
75261;SDS011;63859;51.064;4.580;2023-11-21T10:45:38;54.27;;;22.93;;
75261;SDS011;63859;51.064;4.580;2023-11-21T10:48:06;55.87;;;21.97;;
75261;SDS011;63859;51.064;4.580;2023-11-21T10:50:36;49.60;;;20.27;;
75261;SDS011;63859;51.064;4.580;2023-11-21T10:53:03;41.37;;;18.57;;
75261;SDS011;63859;51.064;4.580;2023-11-21T10:55:29;40.03;;;17.37;;
75261;SDS011;63859;51.064;4.580;2023-11-21T10:57:58;37.40;;;17.93;;
75261;SDS011;63859;51.064;4.580;2023-11-21T11:00:27;35.88;;;16.77;;
75261;SDS011;63859;51.064;4.580;2023-11-21T11:02:54;36.10;;;16.87;;
75261;SDS011;63859;51.064;4.580;2023-11-21T11:05:21;35.85;;;18.38;;
75261;SDS011;63859;51.064;4.580;2023-11-21T11:07:51;36.57;;;16.70;;
75261;SDS011;63859;51.064;4.580;2023-11-21T11:10:27;35.67;;;17.00;;
75261;SDS011;63859;51.064;4.580;2023-11-21T11:12:54;30.65;;;15.48;;
75261;SDS011;63859;51.064;4.580;2023-11-21T11:15:22;28.80;;;15.67;;
75261;SDS011;63859;51.064;4.580;2023-11-21T11:17:49;25.93;;;13.73;;
75261;SDS011;63859;51.064;4.580;2023-11-21T11:20:15;29.58;;;14.82;;
75261;SDS011;63859;51.064;4.580;2023-11-21T11:28:22;26.27;;;13.27;;
75261;SDS011;63859;51.064;4.580;2023-11-21T11:36:49;21.37;;;11.50;;
75261;SDS011;63859;51.064;4.580;2023-11-21T11:39:32;30.10;;;17.00;;
75261;SDS011;63859;51.064;4.580;2023-11-21T11:42:02;33.20;;;19.43;;
75261;SDS011;63859;51.064;4.580;2023-11-21T11:44:46;33.13;;;14.37;;
75261;SDS011;63859;51.064;4.580;2023-11-21T11:47:15;18.53;;;10.27;;
75261;SDS011;63859;51.064;4.580;2023-11-21T11:55:08;15.30;;;9.10;;
75261;SDS011;63859;51.064;4.580;2023-11-21T11:57:43;15.97;;;8.80;;
75261;SDS011;63859;51.064;4.580;2023-11-21T12:02:56;14.43;;;9.13;;
75261;SDS011;63859;51.064;4.580;2023-11-21T12:05:25;13.50;;;7.87;;
75261;SDS011;63859;51.064;4.580;2023-11-21T12:07:58;13.23;;;7.57;;
75261;SDS011;63859;51.064;4.580;2023-11-21T12:10:35;15.13;;;8.00;;
75261;SDS011;63859;51.064;4.580;2023-11-21T12:13:03;10.50;;;7.07;;
75261;SDS011;63859;51.064;4.580;2023-11-21T12:15:35;10.73;;;7.00;;
75261;SDS011;63859;51.064;4.580;2023-11-21T12:18:01;11.70;;;6.90;;
75261;SDS011;63859;51.064;4.580;2023-11-21T12:20:28;12.23;;;6.82;;
75261;SDS011;63859;51.064;4.580;2023-11-21T12:22:56;13.60;;;7.30;;
75261;SDS011;63859;51.064;4.580;2023-11-21T12:25:27;8.00;;;6.07;;
75261;SDS011;63859;51.064;4.580;2023-11-21T12:27:54;9.65;;;6.38;;
75261;SDS011;63859;51.064;4.580;2023-11-21T12:30:22;11.83;;;7.13;;
75261;SDS011;63859;51.064;4.580;2023-11-21T12:32:50;10.03;;;7.03;;
75261;SDS011;63859;51.064;4.580;2023-11-21T12:35:17;11.80;;;7.13;;
75261;SDS011;63859;51.064;4.580;2023-11-21T12:37:47;10.93;;;6.85;;
75261;SDS011;63859;51.064;4.580;2023-11-21T12:40:13;10.17;;;6.50;;
75261;SDS011;63859;51.064;4.580;2023-11-21T12:42:44;9.88;;;6.07;;
75261;SDS011;63859;51.064;4.580;2023-11-21T12:48:00;7.80;;;6.03;;
75261;SDS011;63859;51.064;4.580;2023-11-21T12:50:33;11.20;;;6.13;;
75261;SDS011;63859;51.064;4.580;2023-11-21T12:53:00;9.10;;;5.57;;
75261;SDS011;63859;51.064;4.580;2023-11-21T12:55:29;7.33;;;5.77;;
75261;SDS011;63859;51.064;4.580;2023-11-21T12:57:56;11.00;;;6.43;;
75261;SDS011;63859;51.064;4.580;2023-11-21T13:00:29;11.20;;;5.60;;
75261;SDS011;63859;51.064;4.580;2023-11-21T13:02:58;7.72;;;5.38;;
75261;SDS011;63859;51.064;4.580;2023-11-21T13:07:57;6.17;;;4.77;;
75261;SDS011;63859;51.064;4.580;2023-11-21T13:10:27;9.52;;;4.75;;
75261;SDS011;63859;51.064;4.580;2023-11-21T13:12:59;10.27;;;4.27;;
75261;SDS011;63859;51.064;4.580;2023-11-21T13:15:28;9.20;;;4.68;;
75261;SDS011;63859;51.064;4.580;2023-11-21T13:17:56;7.82;;;4.88;;
75261;SDS011;63859;51.064;4.580;2023-11-21T13:20:23;6.50;;;5.05;;
75261;SDS011;63859;51.064;4.580;2023-11-21T13:22:58;7.25;;;4.93;;
75261;SDS011;63859;51.064;4.580;2023-11-21T13:25:27;8.15;;;4.60;;
75261;SDS011;63859;51.064;4.580;2023-11-21T13:27:59;9.18;;;4.63;;
75261;SDS011;63859;51.064;4.580;2023-11-21T13:30:25;6.20;;;4.33;;
75261;SDS011;63859;51.064;4.580;2023-11-21T13:32:56;6.13;;;4.40;;
75261;SDS011;63859;51.064;4.580;2023-11-21T13:35:22;6.40;;;3.90;;
75261;SDS011;63859;51.064;4.580;2023-11-21T13:37:57;6.55;;;4.47;;
75261;SDS011;63859;51.064;4.580;2023-11-21T13:40:33;13.02;;;4.85;;
75261;SDS011;63859;51.064;4.580;2023-11-21T13:43:08;9.47;;;4.70;;
75261;SDS011;63859;51.064;4.580;2023-11-21T13:45:38;7.60;;;4.80;;
75261;SDS011;63859;51.064;4.580;2023-11-21T13:48:07;6.17;;;4.50;;
75261;SDS011;63859;51.064;4.580;2023-11-21T13:50:42;7.37;;;4.73;;
75261;SDS011;63859;51.064;4.580;2023-11-21T13:53:20;6.05;;;4.50;;
75261;SDS011;63859;51.064;4.580;2023-11-21T13:55:52;6.32;;;4.28;;
75261;SDS011;63859;51.064;4.580;2023-11-21T13:58:24;8.50;;;5.80;;
75261;SDS011;63859;51.064;4.580;2023-11-21T14:01:09;7.67;;;5.00;;
75261;SDS011;63859;51.064;4.580;2023-11-21T14:03:53;7.30;;;5.20;;
75261;SDS011;63859;51.064;4.580;2023-11-21T14:06:26;8.02;;;4.93;;
75261;SDS011;63859;51.064;4.580;2023-11-21T14:08:59;10.48;;;5.63;;
75261;SDS011;63859;51.064;4.580;2023-11-21T14:11:30;8.77;;;5.38;;
75261;SDS011;63859;51.064;4.580;2023-11-21T14:13:55;10.95;;;6.22;;
75261;SDS011;63859;51.064;4.580;2023-11-21T14:16:24;7.87;;;5.33;;
75261;SDS011;63859;51.064;4.580;2023-11-21T14:18:50;9.93;;;6.10;;
75261;SDS011;63859;51.064;4.580;2023-11-21T14:21:22;9.47;;;6.00;;
75261;SDS011;63859;51.064;4.580;2023-11-21T14:23:48;11.93;;;7.03;;
75261;SDS011;63859;51.064;4.580;2023-11-21T14:26:14;10.07;;;6.67;;
75261;SDS011;63859;51.064;4.580;2023-11-21T14:28:40;12.50;;;6.53;;
75261;SDS011;63859;51.064;4.580;2023-11-21T14:31:07;9.57;;;6.10;;
75261;SDS011;63859;51.064;4.580;2023-11-21T14:33:38;11.37;;;6.40;;
75261;SDS011;63859;51.064;4.580;2023-11-21T14:36:04;11.00;;;6.17;;
75261;SDS011;63859;51.064;4.580;2023-11-21T14:38:30;10.23;;;6.33;;
75261;SDS011;63859;51.064;4.580;2023-11-21T14:40:56;10.57;;;6.40;;
75261;SDS011;63859;51.064;4.580;2023-11-21T14:43:22;10.70;;;6.53;;
75261;SDS011;63859;51.064;4.580;2023-11-21T14:45:49;11.20;;;6.57;;